Time;durP1;ratioP1;P1;durP2;ratioP2;P2;SDS_P1;SDS_P2;PMS_P1;PMS_P2;Temp;Humidity;BMP_temperature;BMP_pressure;BME280_temperature;BME280_humidity;BME280_pressure;Samples;Min_cycle;Max_cycle;Signal;HPM_P1;HPM_P2
2021/12/16 00:02:14;;;;;;;110.35;10.32;;;1.40;99.90;;;;;;2089787;28;20181;-68
2021/12/16 00:05:09;;;;;;;58.92;9.23;;;1.40;99.90;;;;;;2089302;28;20195;-68
2021/12/16 00:06:31;;;;;;;71.22;8.50;;;1.40;99.90;;;;;;2088893;28;20200;-68
2021/12/16 00:07:32;;;;;;;137.10;13.68;;;1.40;99.90;;;;;;2089539;28;20185;-68
2021/12/16 00:08:38;;;;;;;117.95;10.98;;;1.40;99.90;;;;;;2089683;28;20689;-68
2021/12/16 00:10:04;;;;;;;158.82;14.57;;;1.40;99.90;;;;;;2089771;28;20553;-68
2021/12/16 00:19:49;;;;;;;63.90;8.55;;;1.20;99.90;;;;;;2089298;28;20161;-68
2021/12/16 00:30:35;;;;;;;169.70;15.95;;;1.50;99.90;;;;;;2089652;28;20168;-68
2021/12/16 00:32:48;;;;;;;88.20;9.10;;;1.50;99.90;;;;;;2089284;28;20229;-68
2021/12/16 00:34:04;;;;;;;84.10;8.77;;;1.50;99.90;;;;;;2089719;28;20882;-68
2021/12/16 00:35:06;;;;;;;81.60;9.48;;;1.50;99.90;;;;;;2088888;28;20172;-68
2021/12/16 00:36:10;;;;;;;91.72;9.35;;;1.50;99.90;;;;;;2088937;28;20288;-68
2021/12/16 00:37:11;;;;;;;49.13;6.90;;;1.50;99.90;;;;;;2081238;28;20211;-68
2021/12/16 00:38:12;;;;;;;67.50;8.70;;;1.50;99.90;;;;;;2088942;28;20226;-68
2021/12/16 00:39:28;;;;;;;115.53;9.90;;;1.50;99.90;;;;;;2089554;28;20270;-68
2021/12/16 00:40:29;;;;;;;87.82;9.77;;;1.50;99.90;;;;;;2089084;28;20218;-68
2021/12/16 00:41:30;;;;;;;66.83;7.93;;;1.40;99.90;;;;;;2080752;28;20182;-68
2021/12/16 00:43:51;;;;;;;84.77;12.13;;;1.40;99.90;;;;;;2089662;28;20654;-68
2021/12/16 00:47:33;;;;;;;93.47;8.50;;;1.40;99.90;;;;;;2089451;28;20172;-68
2021/12/16 00:49:50;;;;;;;149.55;12.15;;;1.50;99.90;;;;;;2089787;28;20261;-68
2021/12/16 00:54:44;;;;;;;122.90;9.77;;;1.50;99.90;;;;;;2089589;28;20174;-68
2021/12/16 00:55:51;;;;;;;214.15;16.50;;;1.50;99.90;;;;;;2089515;28;20559;-68
2021/12/16 00:56:59;;;;;;;180.55;16.27;;;1.40;99.90;;;;;;2089701;28;20207;-68
2021/12/16 00:58:00;;;;;;;85.63;7.32;;;1.40;99.90;;;;;;2089102;28;20174;-68
2021/12/16 00:59:03;;;;;;;123.63;11.33;;;1.40;99.90;;;;;;2089120;28;20185;-68
2021/12/16 01:00:07;;;;;;;34.13;6.68;;;1.40;99.90;;;;;;2089494;28;20548;-68
2021/12/16 01:01:24;;;;;;;48.75;7.95;;;1.40;99.90;;;;;;2089591;28;20187;-68
2021/12/16 01:04:19;;;;;;;32.72;5.82;;;1.50;99.90;;;;;;2089141;28;20535;-69
2021/12/16 01:06:47;;;;;;;137.93;12.17;;;1.50;99.90;;;;;;2089565;28;20197;-68
2021/12/16 01:39:01;;;;;;;46.67;5.82;;;1.20;99.90;;;;;;2084929;28;20215;-68
2021/12/16 01:47:21;;;;;;;87.15;11.32;;;1.40;99.90;;;;;;2090487;28;20176;-68
2021/12/16 01:49:04;;;;;;;107.13;9.98;;;1.40;99.90;;;;;;2090025;28;20205;-68
2021/12/16 01:49:58;;;;;;;66.10;8.95;;;1.40;99.90;;;;;;2090235;28;20653;-68
2021/12/16 01:51:13;;;;;;;63.85;7.63;;;1.30;99.90;;;;;;2090836;28;20599;-68
2021/12/16 01:55:16;;;;;;;127.32;11.70;;;1.30;99.90;;;;;;2090449;28;20161;-68
2021/12/16 01:56:39;;;;;;;80.45;8.30;;;1.20;99.90;;;;;;2090021;28;20220;-68
2021/12/16 01:57:49;;;;;;;42.15;5.82;;;1.10;99.90;;;;;;2090408;28;20192;-68
2021/12/16 01:58:51;;;;;;;54.20;6.80;;;1.10;99.90;;;;;;2089978;28;20219;-68
2021/12/16 02:00:05;;;;;;;33.83;5.65;;;1.10;99.90;;;;;;2090323;28;20196;-68
2021/12/16 02:01:17;;;;;;;109.78;9.60;;;1.20;99.90;;;;;;2090805;28;20606;-68
2021/12/16 02:03:44;;;;;;;94.32;11.65;;;1.20;99.90;;;;;;2090468;28;20251;-68
2021/12/16 02:06:42;;;;;;;63.80;9.23;;;1.10;99.90;;;;;;2085559;28;20205;-68
2021/12/16 02:08:54;;;;;;;29.35;5.43;;;1.20;99.90;;;;;;2090120;28;20338;-68
2021/12/16 02:10:02;;;;;;;44.28;6.13;;;1.10;99.90;;;;;;2090132;28;20181;-68
2021/12/16 02:11:25;;;;;;;120.70;12.13;;;1.10;99.90;;;;;;2090567;28;20234;-68
2021/12/16 02:27:29;;;;;;;27.98;6.20;;;1.40;99.90;;;;;;2090146;28;20173;-68
2021/12/16 02:29:56;;;;;;;51.50;8.05;;;1.40;99.90;;;;;;2090132;28;20557;-68
2021/12/16 02:32:09;;;;;;;44.70;6.40;;;1.40;99.90;;;;;;2089861;28;20365;-68
2021/12/16 02:33:20;;;;;;;33.75;8.55;;;1.40;99.90;;;;;;2083628;28;20165;-68
2021/12/16 02:34:31;;;;;;;102.65;12.23;;;1.40;99.90;;;;;;2090050;28;20194;-68
2021/12/16 02:35:43;;;;;;;97.40;10.63;;;1.40;99.90;;;;;;2089764;28;20625;-68
2021/12/16 02:36:46;;;;;;;31.15;5.43;;;1.40;99.90;;;;;;2084362;28;20274;-68
2021/12/16 02:37:49;;;;;;;36.88;6.97;;;1.40;99.90;;;;;;2091398;28;20180;-68
2021/12/16 02:38:59;;;;;;;18.60;4.30;;;1.40;99.90;;;;;;2097882;28;20279;-68
2021/12/16 02:40:04;;;;;;;45.45;6.03;;;1.40;99.90;;;;;;2089720;28;20256;-68
2021/12/16 02:41:04;;;;;;;27.30;5.00;;;1.40;99.90;;;;;;2089704;28;20185;-68
2021/12/16 02:42:13;;;;;;;27.17;5.70;;;1.50;99.90;;;;;;2090355;28;20194;-69
2021/12/16 02:49:17;;;;;;;39.22;6.88;;;1.40;99.90;;;;;;2090242;28;20173;-68
2021/12/16 02:50:20;;;;;;;38.50;6.53;;;1.50;99.90;;;;;;2090256;28;20188;-68
2021/12/16 02:51:26;;;;;;;43.20;7.68;;;1.40;99.90;;;;;;2089739;28;20196;-67
2021/12/16 02:52:28;;;;;;;61.40;8.80;;;1.40;99.90;;;;;;2089783;28;20178;-68
2021/12/16 02:53:31;;;;;;;35.78;7.22;;;1.40;99.90;;;;;;2089850;28;20180;-68
2021/12/16 02:54:32;;;;;;;53.13;8.82;;;1.40;99.90;;;;;;2081525;28;20185;-67
2021/12/16 02:55:33;;;;;;;97.82;13.02;;;1.40;99.90;;;;;;2081467;28;20181;-68
2021/12/16 02:56:35;;;;;;;20.90;5.23;;;1.40;99.90;;;;;;2089471;28;20222;-67
2021/12/16 02:57:45;;;;;;;72.63;10.13;;;1.40;99.90;;;;;;2089635;28;20172;-67
2021/12/16 02:58:53;;;;;;;53.72;6.43;;;1.30;99.90;;;;;;2082867;28;20210;-67
2021/12/16 02:59:55;;;;;;;47.13;6.45;;;1.30;99.90;;;;;;2089871;28;20168;-67
2021/12/16 03:01:20;;;;;;;25.15;6.13;;;1.30;99.90;;;;;;2089696;28;20177;-67
2021/12/16 03:02:24;;;;;;;99.00;12.73;;;1.30;99.90;;;;;;2089919;28;20185;-68
2021/12/16 03:03:25;;;;;;;31.20;6.25;;;1.20;99.90;;;;;;2089611;28;20272;-68
2021/12/16 03:04:29;;;;;;;79.63;9.75;;;1.20;99.90;;;;;;2089640;28;20179;-68
2021/12/16 03:05:31;;;;;;;75.63;11.85;;;1.30;99.90;;;;;;2089639;28;20184;-68
2021/12/16 03:06:33;;;;;;;73.53;11.55;;;1.30;99.90;;;;;;2081687;28;20194;-68
2021/12/16 03:07:34;;;;;;;37.58;6.47;;;1.30;99.90;;;;;;2089436;28;20188;-68
2021/12/16 03:08:35;;;;;;;47.50;7.87;;;1.40;99.90;;;;;;2090139;28;20574;-68
2021/12/16 03:13:40;;;;;;;27.98;6.95;;;1.50;99.90;;;;;;2089832;28;20267;-68
2021/12/16 03:14:48;;;;;;;64.78;10.23;;;1.50;99.90;;;;;;2089985;28;20202;-68
2021/12/16 03:16:01;;;;;;;19.98;5.00;;;1.50;99.90;;;;;;2090034;28;20184;-68
2021/12/16 03:17:29;;;;;;;22.58;5.82;;;1.40;99.90;;;;;;2089641;28;20161;-68
2021/12/16 03:19:57;;;;;;;56.15;10.70;;;1.40;99.90;;;;;;2090155;28;20208;-68
2021/12/16 03:21:06;;;;;;;36.22;7.35;;;1.40;99.90;;;;;;2090129;28;20164;-68
2021/12/16 03:22:09;;;;;;;63.95;9.50;;;1.50;99.90;;;;;;2090012;28;20173;-68
2021/12/16 03:23:35;;;;;;;46.97;8.30;;;1.50;99.90;;;;;;2090049;28;20177;-68
2021/12/16 03:26:28;;;;;;;53.65;8.20;;;1.40;99.90;;;;;;2090042;28;20169;-68
2021/12/16 03:30:25;;;;;;;53.75;10.80;;;1.50;99.90;;;;;;2090123;28;20172;-68
2021/12/16 03:31:54;;;;;;;63.28;6.93;;;1.50;99.90;;;;;;2089385;28;20190;-68
2021/12/16 03:34:32;;;;;;;95.25;10.98;;;1.40;99.90;;;;;;2089259;28;20677;-68
2021/12/16 03:35:40;;;;;;;53.58;7.00;;;1.40;99.90;;;;;;2081717;28;20162;-68
2021/12/16 03:37:18;;;;;;;64.97;7.22;;;1.40;99.90;;;;;;2081725;28;20209;-68
2021/12/16 03:38:20;;;;;;;104.55;12.88;;;1.40;99.90;;;;;;2081091;28;20558;-68
2021/12/16 03:39:21;;;;;;;88.88;9.23;;;1.50;99.90;;;;;;2081580;28;20209;-68
2021/12/16 03:40:22;;;;;;;128.10;13.80;;;1.50;99.90;;;;;;2089235;28;20187;-68
2021/12/16 03:41:24;;;;;;;64.53;7.47;;;1.50;99.90;;;;;;2089254;28;20212;-68
2021/12/16 03:42:35;;;;;;;81.50;11.57;;;1.50;99.90;;;;;;2081641;28;20176;-68
2021/12/16 03:43:38;;;;;;;44.20;6.57;;;1.40;99.90;;;;;;2089314;28;20277;-68
2021/12/16 03:45:05;;;;;;;90.68;9.85;;;1.50;99.90;;;;;;2088884;28;20253;-68
2021/12/16 03:47:18;;;;;;;57.35;6.43;;;1.50;99.90;;;;;;2085748;28;20176;-68
2021/12/16 03:48:26;;;;;;;85.57;10.80;;;1.50;99.90;;;;;;2088878;28;20188;-68
2021/12/16 03:49:27;;;;;;;52.38;8.38;;;1.50;99.90;;;;;;2081635;28;20248;-67
2021/12/16 03:50:28;;;;;;;100.77;11.37;;;1.50;99.90;;;;;;2081510;28;20569;-68
2021/12/16 03:51:34;;;;;;;77.43;10.75;;;1.50;99.90;;;;;;2081302;28;20193;-67
2021/12/16 03:52:36;;;;;;;55.00;7.47;;;1.40;99.90;;;;;;2081500;28;20196;-67
2021/12/16 03:53:38;;;;;;;52.15;8.50;;;1.50;99.90;;;;;;2081562;28;20613;-67
2021/12/16 03:54:49;;;;;;;54.97;8.93;;;1.40;99.90;;;;;;2081279;28;20199;-67
2021/12/16 03:55:50;;;;;;;40.03;7.55;;;1.40;99.90;;;;;;2081477;28;20699;-67
2021/12/16 03:56:53;;;;;;;136.23;13.90;;;1.30;99.90;;;;;;2081438;28;20244;-67
2021/12/16 03:57:54;;;;;;;103.85;9.88;;;1.40;99.90;;;;;;2081706;28;20749;-67
2021/12/16 03:58:55;;;;;;;73.97;8.87;;;1.30;99.90;;;;;;2089178;28;20203;-67
2021/12/16 03:59:56;;;;;;;123.18;12.80;;;1.20;99.90;;;;;;2080940;28;20181;-67
2021/12/16 04:01:01;;;;;;;43.67;6.93;;;1.20;99.90;;;;;;2080889;28;20178;-68
2021/12/16 04:02:20;;;;;;;135.55;12.73;;;1.20;99.90;;;;;;2089421;28;20184;-67
2021/12/16 04:03:21;;;;;;;81.63;12.63;;;1.30;99.90;;;;;;2087040;28;20550;-67
2021/12/16 04:04:22;;;;;;;141.13;15.00;;;1.30;99.90;;;;;;2089311;28;20198;-67
2021/12/16 04:05:24;;;;;;;55.13;7.77;;;1.40;99.90;;;;;;2088907;28;20187;-67
2021/12/16 04:06:30;;;;;;;105.22;12.82;;;1.40;99.90;;;;;;2081564;28;20194;-67
2021/12/16 04:07:33;;;;;;;48.60;7.20;;;1.50;99.90;;;;;;2081472;28;20208;-67
2021/12/16 04:08:34;;;;;;;50.58;6.75;;;1.50;99.90;;;;;;2089104;28;20225;-67
2021/12/16 04:09:35;;;;;;;78.53;10.90;;;1.50;99.90;;;;;;2089154;28;20713;-67
2021/12/16 04:10:48;;;;;;;45.87;6.67;;;1.60;99.90;;;;;;2072661;28;20648;-68
2021/12/16 04:12:02;;;;;;;70.32;8.48;;;1.60;99.90;;;;;;2074387;28;20420;-67
2021/12/16 04:13:06;;;;;;;53.17;6.72;;;1.60;99.90;;;;;;2081616;28;20169;-68
2021/12/16 04:14:11;;;;;;;52.47;9.82;;;1.50;99.90;;;;;;2089039;28;20572;-68
2021/12/16 04:15:12;;;;;;;114.45;12.43;;;1.40;99.90;;;;;;2088334;28;20570;-68
2021/12/16 04:16:12;;;;;;;103.35;9.07;;;1.40;99.90;;;;;;2088888;28;20210;-68
2021/12/16 04:17:14;;;;;;;156.17;14.47;;;1.40;99.90;;;;;;2089022;28;20204;-68
2021/12/16 04:18:15;;;;;;;157.93;15.23;;;1.40;99.90;;;;;;2081356;28;20173;-67
2021/12/16 04:19:23;;;;;;;59.20;7.10;;;1.50;99.90;;;;;;2089177;28;20685;-67
2021/12/16 04:20:24;;;;;;;106.97;11.70;;;1.50;99.90;;;;;;2088124;28;20247;-67
2021/12/16 04:21:27;;;;;;;88.70;9.20;;;1.40;99.90;;;;;;2080781;28;20559;-68
2021/12/16 04:22:35;;;;;;;81.95;8.57;;;1.40;99.90;;;;;;2081379;28;20177;-68
2021/12/16 04:23:36;;;;;;;52.17;6.97;;;1.40;99.90;;;;;;2081381;28;20244;-68
2021/12/16 04:24:38;;;;;;;80.73;7.23;;;1.40;99.90;;;;;;2081260;28;20178;-68
2021/12/16 04:25:43;;;;;;;121.90;12.05;;;1.40;99.90;;;;;;2081322;28;20176;-68
2021/12/16 04:26:45;;;;;;;31.38;6.53;;;1.40;99.90;;;;;;2081174;28;20179;-68
2021/12/16 04:27:47;;;;;;;138.88;12.80;;;1.50;99.90;;;;;;2081388;28;20674;-68
2021/12/16 04:28:48;;;;;;;97.68;11.05;;;1.50;99.90;;;;;;2081375;28;20193;-68
2021/12/16 04:29:49;;;;;;;36.90;6.67;;;1.50;99.90;;;;;;2081363;28;20179;-68
2021/12/16 04:30:50;;;;;;;91.17;10.07;;;1.50;99.90;;;;;;2081264;28;20189;-68
2021/12/16 04:31:54;;;;;;;64.90;8.68;;;1.50;99.90;;;;;;2081440;28;20224;-68
2021/12/16 04:32:55;;;;;;;38.75;7.25;;;1.60;99.90;;;;;;2088870;28;20173;-68
2021/12/16 04:33:56;;;;;;;48.43;7.47;;;1.60;99.90;;;;;;2088928;28;20246;-68
2021/12/16 04:34:57;;;;;;;80.53;8.75;;;1.50;99.90;;;;;;2088806;28;20174;-68
2021/12/16 04:35:58;;;;;;;60.70;10.63;;;1.50;99.90;;;;;;2088902;28;20188;-68
2021/12/16 04:36:59;;;;;;;79.18;13.43;;;1.50;99.90;;;;;;2088861;28;20277;-68
2021/12/16 04:38:00;;;;;;;165.57;14.47;;;1.50;99.90;;;;;;2088965;28;20177;-68
2021/12/16 04:39:07;;;;;;;108.20;13.38;;;1.60;99.90;;;;;;2081296;28;20412;-68
2021/12/16 04:40:11;;;;;;;95.55;12.68;;;1.60;99.90;;;;;;2088956;28;20605;-68
2021/12/16 04:41:13;;;;;;;67.10;8.23;;;1.60;99.90;;;;;;2088548;28;20187;-68
2021/12/16 04:42:17;;;;;;;49.28;7.85;;;1.60;99.90;;;;;;2080696;28;20180;-68
2021/12/16 04:43:21;;;;;;;63.05;7.32;;;1.60;99.90;;;;;;2080596;28;20174;-68
2021/12/16 04:44:24;;;;;;;54.92;8.27;;;1.60;99.90;;;;;;2081252;28;20652;-68
2021/12/16 04:45:26;;;;;;;86.30;11.23;;;1.60;99.90;;;;;;2081069;28;20177;-68
2021/12/16 04:46:30;;;;;;;43.30;8.77;;;1.50;99.90;;;;;;2081286;28;20186;-68
2021/12/16 04:47:30;;;;;;;45.70;7.35;;;1.60;99.90;;;;;;2080586;28;20193;-68
2021/12/16 04:48:32;;;;;;;73.63;11.03;;;1.60;99.90;;;;;;2080599;28;20229;-68
2021/12/16 04:49:33;;;;;;;48.13;7.72;;;1.60;99.90;;;;;;2088807;28;20281;-68
2021/12/16 04:50:34;;;;;;;25.55;6.78;;;1.70;99.90;;;;;;2088896;28;20187;-68
2021/12/16 04:51:38;;;;;;;56.67;8.73;;;1.70;99.90;;;;;;2088807;28;20180;-68
2021/12/16 04:52:39;;;;;;;48.55;8.40;;;1.60;99.90;;;;;;2081221;28;20181;-68
2021/12/16 04:53:42;;;;;;;118.55;13.40;;;1.60;99.90;;;;;;2081122;28;20178;-68
2021/12/16 04:54:43;;;;;;;62.85;8.45;;;1.60;99.90;;;;;;2088727;28;20187;-68
2021/12/16 04:55:44;;;;;;;41.35;8.10;;;1.60;99.90;;;;;;2088781;28;20180;-68
2021/12/16 04:56:47;;;;;;;77.23;13.73;;;1.60;99.90;;;;;;2081182;28;20281;-68
2021/12/16 04:57:50;;;;;;;44.63;7.25;;;1.70;99.90;;;;;;2081322;28;20188;-68
2021/12/16 04:58:53;;;;;;;70.85;11.88;;;1.70;99.90;;;;;;2081064;28;20254;-68
2021/12/16 04:59:53;;;;;;;65.82;12.30;;;1.70;99.90;;;;;;2080611;28;20642;-68
2021/12/16 05:00:55;;;;;;;53.63;11.27;;;1.70;99.90;;;;;;2080603;28;20201;-68
2021/12/16 05:02:05;;;;;;;68.10;12.93;;;1.70;99.90;;;;;;2081123;28;20261;-68
2021/12/16 05:03:06;;;;;;;26.00;7.28;;;1.80;99.90;;;;;;2081485;28;20166;-68
2021/12/16 05:04:07;;;;;;;72.13;10.17;;;1.80;99.90;;;;;;2090509;28;20174;-68
2021/12/16 05:05:08;;;;;;;33.03;6.23;;;1.80;99.90;;;;;;2090328;28;20255;-68
2021/12/16 05:06:10;;;;;;;23.23;6.10;;;1.80;99.90;;;;;;2082764;28;20204;-68
2021/12/16 05:07:12;;;;;;;20.85;5.72;;;1.80;99.90;;;;;;2082868;28;20662;-68
2021/12/16 05:08:13;;;;;;;21.23;6.82;;;1.80;99.90;;;;;;2082792;28;20213;-68
2021/12/16 05:09:33;;;;;;;36.15;8.32;;;1.70;99.90;;;;;;2082829;28;20194;-68
2021/12/16 05:10:35;;;;;;;29.58;7.57;;;1.70;99.90;;;;;;2082818;28;20559;-68
2021/12/16 05:11:36;;;;;;;16.33;4.73;;;1.70;99.90;;;;;;2082879;28;20216;-68
2021/12/16 05:12:44;;;;;;;21.60;5.07;;;1.70;99.90;;;;;;2082786;28;20433;-68
2021/12/16 05:13:46;;;;;;;12.80;4.10;;;1.70;99.90;;;;;;2082262;28;20254;-68
2021/12/16 05:14:48;;;;;;;17.58;7.15;;;1.70;99.90;;;;;;2082187;28;20712;-68
2021/12/16 05:15:49;;;;;;;16.63;6.38;;;1.70;99.90;;;;;;2082014;28;20658;-68
2021/12/16 05:16:50;;;;;;;23.48;8.27;;;1.70;99.90;;;;;;2082130;28;20635;-68
2021/12/16 05:17:53;;;;;;;40.50;11.20;;;1.70;99.90;;;;;;2082729;28;20300;-68
2021/12/16 05:18:56;;;;;;;39.83;11.52;;;1.70;99.90;;;;;;2089054;28;20617;-68
2021/12/16 05:20:01;;;;;;;53.75;12.43;;;1.70;99.90;;;;;;2091179;28;20194;-68
2021/12/16 05:21:08;;;;;;;35.90;9.63;;;1.70;99.90;;;;;;2091128;28;20176;-68
2021/12/16 05:24:48;;;;;;;22.65;6.30;;;1.80;99.90;;;;;;2090825;28;20183;-68
2021/12/16 05:27:09;;;;;;;21.85;5.97;;;1.80;99.90;;;;;;2090825;28;20842;-68
2021/12/16 05:28:12;;;;;;;48.45;9.85;;;1.90;99.90;;;;;;2090244;28;20181;-68
2021/12/16 05:29:13;;;;;;;54.70;10.20;;;1.80;99.90;;;;;;2090296;28;20183;-68
2021/12/16 05:30:14;;;;;;;48.50;11.52;;;1.90;99.90;;;;;;2090894;28;20174;-68
2021/12/16 05:31:16;;;;;;;43.87;9.90;;;1.90;99.90;;;;;;2090765;28;20224;-68
2021/12/16 05:32:17;;;;;;;40.63;9.07;;;1.90;99.90;;;;;;2090811;28;20414;-68
2021/12/16 05:33:20;;;;;;;80.40;12.70;;;1.90;99.90;;;;;;2090782;28;20182;-68
2021/12/16 05:34:22;;;;;;;51.17;10.60;;;1.90;99.90;;;;;;2090864;28;20311;-68
2021/12/16 05:35:25;;;;;;;30.63;8.63;;;1.90;99.90;;;;;;2089978;28;20185;-68
2021/12/16 05:36:27;;;;;;;29.52;9.52;;;1.90;99.90;;;;;;2090085;28;20686;-68
2021/12/16 05:37:27;;;;;;;40.17;8.75;;;2.00;99.90;;;;;;2090690;28;20598;-68
2021/12/16 05:38:29;;;;;;;35.60;9.07;;;2.00;99.90;;;;;;2090201;28;20204;-68
2021/12/16 05:39:30;;;;;;;17.13;5.90;;;2.00;99.90;;;;;;2081776;28;20193;-68
2021/12/16 05:40:31;;;;;;;33.13;9.50;;;2.00;99.90;;;;;;2090225;28;20203;-68
2021/12/16 05:41:32;;;;;;;36.10;7.97;;;2.00;99.90;;;;;;2090749;28;20169;-68
2021/12/16 05:42:33;;;;;;;38.42;9.05;;;2.00;99.90;;;;;;2090130;28;20689;-68
2021/12/16 05:43:34;;;;;;;15.27;6.37;;;2.00;99.90;;;;;;2090212;28;20267;-68
2021/12/16 05:44:35;;;;;;;41.35;9.85;;;1.90;99.90;;;;;;2090626;28;20177;-68
2021/12/16 05:45:37;;;;;;;17.60;6.40;;;1.90;99.90;;;;;;2090747;28;20189;-67
2021/12/16 05:46:38;;;;;;;32.53;9.38;;;1.90;99.90;;;;;;2090139;28;20192;-68
2021/12/16 05:47:39;;;;;;;23.80;7.55;;;1.90;99.90;;;;;;2081869;28;20284;-67
2021/12/16 05:48:43;;;;;;;37.47;8.00;;;2.00;99.90;;;;;;2090161;28;20209;-69
2021/12/16 05:49:44;;;;;;;55.45;11.60;;;1.90;99.90;;;;;;2090754;28;20175;-68
2021/12/16 05:50:50;;;;;;;29.23;8.20;;;1.90;99.90;;;;;;2090792;28;20246;-69
2021/12/16 05:51:51;;;;;;;44.92;10.30;;;1.90;99.90;;;;;;2090046;28;20696;-68
2021/12/16 05:52:52;;;;;;;37.17;9.07;;;1.80;99.90;;;;;;2090133;28;20223;-69
2021/12/16 05:53:54;;;;;;;41.92;10.77;;;1.90;99.90;;;;;;2089994;28;20187;-68
2021/12/16 05:54:55;;;;;;;16.95;5.97;;;2.00;99.90;;;;;;2089954;28;20259;-67
2021/12/16 05:55:57;;;;;;;31.67;8.07;;;1.90;99.90;;;;;;2090528;28;20649;-67
2021/12/16 05:56:58;;;;;;;26.73;7.20;;;2.00;99.90;;;;;;2090609;28;20424;-69
2021/12/16 05:58:02;;;;;;;23.90;6.90;;;2.00;99.90;;;;;;2090647;28;20235;-68
2021/12/16 05:59:05;;;;;;;28.33;7.25;;;2.00;99.90;;;;;;2090668;28;20194;-68
2021/12/16 06:00:14;;;;;;;22.80;6.85;;;2.00;99.90;;;;;;2090793;28;20177;-68
2021/12/16 06:01:24;;;;;;;20.02;6.65;;;2.00;99.90;;;;;;2090078;28;20571;-68
2021/12/16 06:02:25;;;;;;;20.05;7.18;;;1.90;99.90;;;;;;2090080;28;20177;-68
2021/12/16 06:03:26;;;;;;;32.53;11.23;;;1.90;99.90;;;;;;2090641;28;20729;-68
2021/12/16 06:04:27;;;;;;;27.25;10.82;;;1.80;99.90;;;;;;2090043;28;20420;-68
2021/12/16 06:05:28;;;;;;;12.20;6.10;;;1.80;99.90;;;;;;2089891;28;20183;-68
2021/12/16 06:06:30;;;;;;;29.13;9.60;;;1.80;99.90;;;;;;2090006;28;20229;-68
2021/12/16 06:07:31;;;;;;;35.13;11.18;;;1.80;99.90;;;;;;2090134;28;20186;-69
2021/12/16 06:08:33;;;;;;;39.27;12.40;;;1.80;99.90;;;;;;2089965;28;20202;-68
2021/12/16 06:09:34;;;;;;;32.35;11.02;;;1.80;99.90;;;;;;2089449;28;20195;-69
2021/12/16 06:11:39;;;;;;;52.87;12.73;;;1.90;99.90;;;;;;2090312;28;20756;-68
2021/12/16 06:12:40;;;;;;;42.53;10.15;;;1.90;99.90;;;;;;2090192;28;20170;-68
2021/12/16 06:14:01;;;;;;;38.57;9.93;;;1.90;99.90;;;;;;2090067;28;20248;-68
2021/12/16 06:15:36;;;;;;;21.75;6.45;;;1.90;99.90;;;;;;2089986;28;20826;-67
2021/12/16 06:27:06;;;;;;;30.02;12.93;;;1.80;99.90;;;;;;2089996;28;20169;-69
2021/12/16 06:28:09;;;;;;;72.63;24.90;;;1.90;99.90;;;;;;2089335;28;20204;-69
2021/12/16 06:29:10;;;;;;;48.17;18.60;;;1.90;99.90;;;;;;2082613;28;20574;-69
2021/12/16 06:30:21;;;;;;;35.88;14.68;;;1.90;99.90;;;;;;2081148;28;20206;-69
2021/12/16 06:31:22;;;;;;;56.78;18.08;;;1.90;99.90;;;;;;2089435;28;20192;-68
2021/12/16 06:32:25;;;;;;;40.00;11.60;;;1.90;99.90;;;;;;2089368;28;20189;-68
2021/12/16 06:33:26;;;;;;;23.67;8.65;;;1.90;99.90;;;;;;2089337;28;20188;-68
2021/12/16 06:34:27;;;;;;;40.33;15.50;;;1.90;99.90;;;;;;2089963;28;20190;-68
2021/12/16 06:35:28;;;;;;;50.70;18.90;;;1.90;99.90;;;;;;2089142;28;20869;-68
2021/12/16 06:36:29;;;;;;;28.77;12.57;;;1.90;99.90;;;;;;2089201;28;20219;-68
2021/12/16 06:37:32;;;;;;;32.00;12.30;;;1.90;99.90;;;;;;2089739;28;20194;-68
2021/12/16 06:38:32;;;;;;;26.17;10.05;;;1.90;99.90;;;;;;2089880;28;20197;-68
2021/12/16 06:39:34;;;;;;;23.23;9.93;;;1.90;99.90;;;;;;2089930;28;20182;-68
2021/12/16 06:40:35;;;;;;;23.38;8.13;;;2.00;99.90;;;;;;2089812;28;20205;-68
2021/12/16 06:41:37;;;;;;;23.37;7.47;;;2.00;99.90;;;;;;2089947;28;20185;-68
2021/12/16 06:42:41;;;;;;;17.80;5.57;;;2.00;99.90;;;;;;2085640;28;20480;-68
2021/12/16 06:43:42;;;;;;;14.00;6.45;;;2.00;99.90;;;;;;2083685;28;20775;-68
2021/12/16 06:44:52;;;;;;;27.15;10.20;;;2.00;99.90;;;;;;2086955;28;20186;-68
2021/12/16 06:45:55;;;;;;;23.02;8.80;;;2.10;99.90;;;;;;2085214;28;20185;-68
2021/12/16 06:47:03;;;;;;;17.83;7.32;;;2.10;99.90;;;;;;2089679;28;20178;-68
2021/12/16 06:48:11;;;;;;;34.65;12.73;;;2.10;99.90;;;;;;2089533;28;20545;-68
2021/12/16 06:49:13;;;;;;;27.52;9.63;;;2.20;99.90;;;;;;2089924;28;20189;-68
2021/12/16 06:50:26;;;;;;;24.27;8.20;;;2.20;99.90;;;;;;2089854;28;20171;-68
2021/12/16 06:51:48;;;;;;;35.72;10.95;;;2.20;99.90;;;;;;2089880;28;20165;-68
2021/12/16 06:52:50;;;;;;;30.85;11.90;;;2.10;99.90;;;;;;2089866;28;20666;-68
2021/12/16 06:54:02;;;;;;;21.08;8.98;;;2.00;99.90;;;;;;2089817;28;20173;-68
2021/12/16 06:55:12;;;;;;;27.35;9.70;;;1.90;99.90;;;;;;2088955;28;20173;-68
2021/12/16 06:56:21;;;;;;;26.23;9.88;;;1.90;99.90;;;;;;2089294;28;20251;-68
2021/12/16 06:57:34;;;;;;;20.50;9.65;;;1.90;99.90;;;;;;2097222;28;20180;-68
2021/12/16 06:58:42;;;;;;;20.10;9.30;;;1.90;99.90;;;;;;2089024;28;20718;-68
2021/12/16 06:59:53;;;;;;;19.05;9.13;;;1.90;99.90;;;;;;2089415;28;20162;-68
2021/12/16 07:01:05;;;;;;;22.63;9.35;;;2.00;99.90;;;;;;2089720;28;20186;-68
2021/12/16 07:02:18;;;;;;;27.73;9.55;;;2.00;99.90;;;;;;2089079;28;20184;-68
2021/12/16 07:03:22;;;;;;;14.85;7.82;;;2.00;99.90;;;;;;2089454;28;20524;-68
2021/12/16 07:04:23;;;;;;;28.10;10.23;;;2.00;99.90;;;;;;2088702;28;20180;-68
2021/12/16 07:06:45;;;;;;;27.13;11.38;;;1.90;99.90;;;;;;2096137;28;20561;-67
2021/12/16 07:07:47;;;;;;;22.40;11.50;;;1.90;99.90;;;;;;2088301;28;20169;-67
2021/12/16 07:08:53;;;;;;;41.63;14.38;;;1.80;99.90;;;;;;2088161;28;20307;-67
2021/12/16 07:09:53;;;;;;;25.60;10.60;;;1.90;99.90;;;;;;2087823;28;20170;-67
2021/12/16 07:10:57;;;;;;;28.43;13.27;;;1.90;99.90;;;;;;2086144;28;20175;-67
2021/12/16 07:12:00;;;;;;;35.33;13.48;;;1.90;99.90;;;;;;2079435;28;20185;-67
2021/12/16 07:13:07;;;;;;;34.90;13.18;;;2.00;99.90;;;;;;2079201;28;20181;-66
2021/12/16 07:14:15;;;;;;;17.35;8.15;;;2.00;99.90;;;;;;2081187;28;20171;-67
2021/12/16 07:15:22;;;;;;;18.92;8.52;;;2.00;99.90;;;;;;2086010;28;20192;-67
2021/12/16 07:16:26;;;;;;;18.52;7.13;;;2.00;99.90;;;;;;2087599;28;20261;-67
2021/12/16 07:17:27;;;;;;;18.30;8.80;;;1.90;99.90;;;;;;2087403;28;20179;-67
2021/12/16 07:18:28;;;;;;;20.67;9.83;;;2.00;99.90;;;;;;2087538;28;20692;-67
2021/12/16 07:19:29;;;;;;;22.23;10.77;;;2.00;99.90;;;;;;2088214;28;20179;-67
2021/12/16 07:20:32;;;;;;;24.77;11.57;;;2.00;99.90;;;;;;2088167;28;20669;-67
2021/12/16 07:21:37;;;;;;;25.08;11.65;;;2.00;99.90;;;;;;2087386;28;20186;-67
2021/12/16 07:22:38;;;;;;;37.35;14.90;;;2.00;99.90;;;;;;2088038;28;20649;-67
2021/12/16 07:23:39;;;;;;;24.37;11.47;;;1.90;99.90;;;;;;2088249;28;20185;-67
2021/12/16 07:24:39;;;;;;;24.33;11.87;;;1.90;99.90;;;;;;2088033;28;20176;-67
2021/12/16 07:25:41;;;;;;;23.93;11.70;;;1.90;99.90;;;;;;2088208;28;20263;-67
2021/12/16 07:26:42;;;;;;;29.75;12.40;;;1.90;99.90;;;;;;2087979;28;20208;-67
2021/12/16 07:27:43;;;;;;;43.55;15.43;;;2.00;99.90;;;;;;2087456;28;20697;-67
2021/12/16 07:28:44;;;;;;;23.67;10.13;;;2.00;99.90;;;;;;2087490;28;20220;-67
2021/12/16 07:29:45;;;;;;;26.10;10.70;;;2.00;99.90;;;;;;2088026;28;20191;-67
2021/12/16 07:30:46;;;;;;;14.67;8.00;;;2.10;99.90;;;;;;2084829;28;20171;-67
2021/12/16 07:31:47;;;;;;;22.20;9.82;;;2.10;99.90;;;;;;2080802;28;20174;-67
2021/12/16 07:32:50;;;;;;;21.00;10.33;;;2.10;99.90;;;;;;2088089;28;20177;-67
2021/12/16 07:33:50;;;;;;;30.52;13.32;;;2.00;99.90;;;;;;2087974;28;20163;-67
2021/12/16 07:34:51;;;;;;;31.87;11.67;;;2.00;99.90;;;;;;2087822;28;20170;-66
2021/12/16 07:35:53;;;;;;;24.23;9.93;;;2.00;99.90;;;;;;2088148;28;20573;-67
2021/12/16 07:36:54;;;;;;;24.88;9.88;;;2.00;99.90;;;;;;2087935;28;20168;-67
2021/12/16 07:37:55;;;;;;;26.53;10.43;;;2.00;99.90;;;;;;2088090;28;20617;-67
2021/12/16 07:38:57;;;;;;;28.02;10.75;;;2.00;99.90;;;;;;2088027;28;20189;-67
2021/12/16 07:39:59;;;;;;;22.42;10.32;;;2.00;99.90;;;;;;2087884;28;20202;-68
2021/12/16 07:41:00;;;;;;;27.77;10.95;;;2.10;99.90;;;;;;2087455;28;20725;-67
2021/12/16 07:42:01;;;;;;;32.00;13.00;;;2.10;99.90;;;;;;2087451;28;20231;-68
2021/12/16 07:44:10;;;;;;;30.95;11.85;;;2.20;99.90;;;;;;2088022;28;20237;-68
2021/12/16 07:45:17;;;;;;;21.00;9.38;;;2.20;99.90;;;;;;2087672;28;20177;-68
2021/12/16 07:46:18;;;;;;;34.22;12.95;;;2.20;99.90;;;;;;2087953;28;20212;-68
2021/12/16 07:47:19;;;;;;;24.27;10.23;;;2.30;99.90;;;;;;2087852;28;20182;-68
2021/12/16 07:48:22;;;;;;;19.20;9.30;;;2.30;99.90;;;;;;2087786;28;20234;-68
2021/12/16 07:49:31;;;;;;;23.13;10.32;;;2.30;99.90;;;;;;2088057;28;20186;-67